Time;durP1;ratioP1;P1;durP2;ratioP2;P2;SDS_P1;SDS_P2;PMS_P1;PMS_P2;Temp;Humidity;BMP_temperature;BMP_pressure;BME280_temperature;BME280_humidity;BME280_pressure;Samples;Min_cycle;Max_cycle;Signal;HPM_P1;HPM_P2
2023/05/08 00:03:15;;;;;;;39.90;28.48;;;;;;;16.23;100.00;100963.81;8290669;28;20030;-61
2023/05/08 00:07:15;;;;;;;40.05;28.27;;;;;;;16.23;100.00;100963.81;8290486;28;20042;-61
2023/05/08 00:11:16;;;;;;;39.97;28.55;;;;;;;16.18;100.00;100968.91;8290775;28;20172;-61
2023/05/08 00:15:16;;;;;;;44.95;29.65;;;;;;;16.21;100.00;100966.72;8290030;28;20685;-59
2023/05/08 00:19:17;;;;;;;40.85;30.25;;;;;;;16.20;100.00;100980.53;8290723;28;20125;-59
2023/05/08 00:23:17;;;;;;;43.30;30.15;;;;;;;16.15;100.00;100975.56;8290559;28;20045;-61
2023/05/08 00:27:17;;;;;;;41.97;29.92;;;;;;;16.12;100.00;100977.75;8290284;28;20120;-61
2023/05/08 00:31:18;;;;;;;44.85;30.55;;;;;;;16.16;100.00;100984.63;8290654;28;20045;-61
2023/05/08 00:35:19;;;;;;;38.92;29.45;;;;;;;16.08;100.00;100981.84;8295502;28;20076;-61
2023/05/08 00:39:19;;;;;;;40.30;30.58;;;;;;;16.03;100.00;100984.19;8294700;28;20038;-58
2023/05/08 00:43:24;;;;;;;46.80;31.40;;;;;;;15.92;100.00;100974.44;8296028;28;20092;-58
2023/05/08 00:47:25;;;;;;;49.35;32.42;;;;;;;15.91;100.00;100975.47;8295409;28;20037;-58
2023/05/08 00:51:26;;;;;;;49.78;33.30;;;;;;;15.90;100.00;100981.06;8295939;28;20161;-59
2023/05/08 00:55:28;;;;;;;49.85;33.47;;;;;;;15.90;100.00;100978.34;8294871;28;20291;-59
2023/05/08 00:59:29;;;;;;;60.72;36.05;;;;;;;15.91;100.00;100969.13;8295543;28;20058;-59
2023/05/08 01:03:31;;;;;;;53.13;35.80;;;;;;;15.81;100.00;100977.47;8295677;28;20504;-61
2023/05/08 01:07:31;;;;;;;57.35;36.58;;;;;;;15.80;100.00;100980.34;8295021;28;20038;-61
2023/05/08 01:11:39;;;;;;;57.40;38.08;;;;;;;15.77;100.00;100974.19;8293794;28;20175;-61
2023/05/08 01:15:49;;;;;;;55.33;38.50;;;;;;;15.69;100.00;100979.63;8294738;28;20057;-60
2023/05/08 01:24:32;;;;;;;65.65;39.28;;;;;;;15.64;100.00;100979.25;8393130;27;20397;-60
2023/05/08 01:29:12;;;;;;;61.75;37.67;;;;;;;15.62;100.00;100997.63;8417375;28;20041;-59
2023/05/08 01:37:44;;;;;;;59.70;36.63;;;;;;;15.32;100.00;100989.94;8353476;27;20464;-59
2023/05/08 01:42:01;;;;;;;77.55;36.50;;;;;;;15.25;100.00;100994.28;8353087;28;20052;-59
2023/05/08 01:46:08;;;;;;;56.45;34.22;;;;;;;15.29;100.00;100995.69;8316468;28;20469;-59
2023/05/08 01:50:21;;;;;;;107.40;26.77;;;;;;;15.02;100.00;100998.53;8319926;28;20050;-59
2023/05/08 01:54:25;;;;;;;63.60;28.55;;;;;;;14.88;100.00;101007.25;8341171;28;20033;-59
2023/05/08 01:58:26;;;;;;;;;;;;;;;15.07;100.00;101007.06;8319723;28;20574;-60
2023/05/08 02:02:30;;;;;;;39.45;26.52;;;;;;;15.24;100.00;101008.91;8319281;28;19917;-60
2023/05/08 02:06:31;;;;;;;35.45;24.85;;;;;;;15.20;100.00;101004.81;8318370;28;20038;-60
2023/05/08 02:10:33;;;;;;;38.25;25.67;;;;;;;15.21;100.00;101008.38;8324988;28;20489;-60
2023/05/08 02:14:35;;;;;;;38.20;25.75;;;;;;;15.09;100.00;101009.63;8318522;28;20403;-60
2023/05/08 02:18:39;;;;;;;31.42;24.85;;;;;;;15.06;100.00;101016.25;8318540;28;20045;-60
2023/05/08 02:22:43;;;;;;;52.67;27.52;;;;;;;15.03;100.00;101022.03;8318704;28;20037;-60
2023/05/08 02:26:45;;;;;;;;;;;;;;;14.96;100.00;101026.38;8338771;28;20211;-60
2023/05/08 02:30:46;;;;;;;43.83;27.25;;;;;;;14.87;100.00;101016.44;8320780;28;19928;-60
2023/05/08 02:34:49;;;;;;;42.03;29.63;;;;;;;14.89;100.00;101022.59;8317452;28;20072;-60
2023/05/08 02:38:53;;;;;;;49.22;29.33;;;;;;;14.90;100.00;101032.47;8333496;28;20503;-60
2023/05/08 02:42:54;;;;;;;40.50;28.90;;;;;;;14.83;100.00;101042.25;8350857;28;20037;-60
2023/05/08 02:47:05;;;;;;;46.25;28.50;;;;;;;14.67;100.00;101031.19;8339187;28;20569;-60
2023/05/08 02:51:18;;;;;;;41.47;28.08;;;;;;;14.53;100.00;101034.47;8322790;28;20045;-60
2023/05/08 02:55:32;;;;;;;37.42;27.15;;;;;;;14.64;100.00;101028.78;8295242;28;20033;-59
2023/05/08 02:59:41;;;;;;;40.88;25.60;;;;;;;14.58;100.00;101026.66;8295883;28;20048;-60
2023/05/08 03:03:48;;;;;;;58.38;24.13;;;;;;;14.47;100.00;101026.91;8295793;28;20100;-58
2023/05/08 03:07:53;;;;;;;79.28;23.23;;;;;;;14.26;100.00;101020.88;8295611;28;20515;-58
2023/05/08 03:11:58;;;;;;;;;;;;;;;14.22;100.00;101024.00;8295869;28;20076;-59
2023/05/08 03:16:02;;;;;;;97.65;28.30;;;;;;;14.36;100.00;101020.81;8295097;28;20732;-59
2023/05/08 03:20:05;;;;;;;;;;;;;;;14.32;100.00;101014.81;8295595;28;20117;-58
2023/05/08 03:24:08;;;;;;;58.88;30.10;;;;;;;14.38;100.00;101018.78;8290678;28;19951;-58
2023/05/08 03:28:10;;;;;;;44.97;29.55;;;;;;;14.49;100.00;101022.16;8293055;28;20516;-58
2023/05/08 03:32:12;;;;;;;42.92;28.40;;;;;;;14.21;100.00;101011.44;8295320;28;20049;-59
2023/05/08 03:36:14;;;;;;;63.53;26.50;;;;;;;13.98;100.00;101016.41;8294145;28;20044;-59
2023/05/08 03:40:15;;;;;;;44.80;30.60;;;;;;;14.32;100.00;101012.09;8321917;28;20045;-58
2023/05/08 03:44:17;;;;;;;49.30;32.08;;;;;;;14.51;100.00;101014.69;8324971;28;20048;-58
2023/05/08 03:48:21;;;;;;;48.15;32.63;;;;;;;14.63;100.00;101018.91;8294478;28;20045;-58
2023/05/08 03:52:22;;;;;;;74.60;34.00;;;;;;;14.58;100.00;101014.94;8293799;28;20401;-58
2023/05/08 03:56:23;;;;;;;142.75;34.05;;;;;;;14.52;100.00;101010.94;8290156;28;20471;-60
2023/05/08 04:04:40;;;;;;;115.50;33.63;;;;;;;14.40;100.00;101017.66;8417698;27;20886;-57
2023/05/08 04:08:49;;;;;;;78.28;33.78;;;;;;;14.42;100.00;101033.81;8393023;27;20119;-57
2023/05/08 04:13:12;;;;;;;60.63;33.95;;;;;;;14.51;100.00;101036.47;8365004;28;20303;-57
2023/05/08 04:17:26;;;;;;;57.22;34.75;;;;;;;14.48;100.00;101035.91;8375998;28;20136;-57
2023/05/08 04:21:32;;;;;;;113.32;33.80;;;;;;;14.30;100.00;101021.44;8377687;28;20037;-57
2023/05/08 04:25:38;;;;;;;84.72;34.80;;;;;;;14.19;100.00;101025.19;8386259;28;20495;-57
2023/05/08 04:29:39;;;;;;;59.10;36.08;;;;;;;14.42;100.00;101031.09;8360164;28;20044;-57
2023/05/08 04:33:42;;;;;;;53.60;33.58;;;;;;;14.39;100.00;101032.25;8385045;28;20074;-57
2023/05/08 04:37:42;;;;;;;50.90;33.28;;;;;;;14.37;100.00;101026.13;8384743;28;20049;-58
2023/05/08 04:41:43;;;;;;;58.17;33.28;;;;;;;14.40;100.00;101028.53;8385056;28;20044;-57
2023/05/08 04:45:45;;;;;;;53.85;30.60;;;;;;;14.52;100.00;101024.56;8383919;28;20051;-57
2023/05/08 04:49:45;;;;;;;51.60;31.38;;;;;;;14.58;100.00;101032.09;8384913;28;20099;-57
2023/05/08 04:53:46;;;;;;;48.25;30.73;;;;;;;14.52;100.00;101032.72;8369291;28;20474;-57
2023/05/08 04:57:47;;;;;;;64.57;32.30;;;;;;;14.65;100.00;101038.66;8350940;28;20061;-57
2023/05/08 05:01:48;;;;;;;61.33;31.77;;;;;;;14.82;100.00;101035.09;8350820;28;20041;-57
2023/05/08 05:05:56;;;;;;;55.25;33.20;;;;;;;14.99;100.00;101042.41;8350465;28;20037;-57
2023/05/08 05:09:58;;;;;;;64.55;32.53;;;;;;;15.07;100.00;101044.34;8374541;28;20063;-57
2023/05/08 05:13:59;;;;;;;80.78;33.03;;;;;;;15.12;100.00;101051.03;8353642;28;20080;-57
2023/05/08 05:18:00;;;;;;;96.47;33.88;;;;;;;15.22;100.00;101049.06;8325071;28;20050;-57
2023/05/08 05:22:00;;;;;;;99.07;34.58;;;;;;;15.26;100.00;101061.38;8347869;28;20458;-57
2023/05/08 05:26:01;;;;;;;94.78;34.33;;;;;;;15.36;100.00;101064.88;8341850;28;20040;-57
2023/05/08 05:30:04;;;;;;;84.50;31.60;;;;;;;15.41;100.00;101059.81;8339747;28;20060;-57
2023/05/08 05:34:05;;;;;;;83.18;32.38;;;;;;;15.48;100.00;101060.91;8389029;28;20041;-57
2023/05/08 05:38:05;;;;;;;76.57;30.58;;;;;;;15.50;100.00;101064.31;8380993;28;20537;-57
2023/05/08 05:42:07;;;;;;;72.93;30.77;;;;;;;15.59;100.00;101068.81;8357539;28;20045;-59
2023/05/08 05:46:08;;;;;;;71.38;29.02;;;;;;;15.65;100.00;101068.19;8349089;28;20127;-59
2023/05/08 05:50:10;;;;;;;71.68;28.65;;;;;;;15.66;100.00;101074.50;8359126;28;20037;-59
2023/05/08 05:54:10;;;;;;;71.00;29.10;;;;;;;15.64;100.00;101082.84;8340931;28;20051;-59
2023/05/08 05:58:11;;;;;;;71.15;30.27;;;;;;;15.63;100.00;101081.13;8343813;28;20041;-59
2023/05/08 06:02:17;;;;;;;69.10;29.92;;;;;;;15.68;100.00;101094.28;8329766;28;20137;-59
2023/05/08 06:06:17;;;;;;;75.50;31.65;;;;;;;15.74;100.00;101094.50;8327385;28;20045;-59
2023/05/08 06:10:18;;;;;;;71.60;32.20;;;;;;;15.79;100.00;101082.28;8327568;28;20090;-59
2023/05/08 06:14:19;;;;;;;62.47;30.55;;;;;;;15.78;100.00;101092.31;8327196;28;20044;-59
2023/05/08 06:18:19;;;;;;;63.50;32.13;;;;;;;15.83;100.00;101091.81;8326509;28;20029;-59
2023/05/08 06:22:23;;;;;;;63.20;30.95;;;;;;;15.93;100.00;101084.38;8326556;28;20051;-59
2023/05/08 06:26:23;;;;;;;57.90;31.27;;;;;;;16.01;100.00;101081.72;8325243;28;20492;-59
2023/05/08 06:30:24;;;;;;;53.70;30.20;;;;;;;16.15;100.00;101084.69;8326850;28;20116;-60
2023/05/08 06:34:24;;;;;;;56.97;31.13;;;;;;;16.35;100.00;101086.13;8326506;28;20044;-59
2023/05/08 06:38:25;;;;;;;50.50;29.92;;;;;;;16.59;100.00;101086.28;8329374;28;20064;-59
2023/05/08 06:42:26;;;;;;;45.13;28.45;;;;;;;16.85;100.00;101088.91;8326123;28;20136;-61
2023/05/08 06:46:26;;;;;;;40.83;25.83;;;;;;;16.79;100.00;101084.13;8326064;28;20041;-60
2023/05/08 06:50:27;;;;;;;40.75;26.27;;;;;;;16.67;100.00;101088.19;8326136;28;20038;-60
2023/05/08 06:54:27;;;;;;;42.15;25.20;;;;;;;16.81;100.00;101096.56;8325243;28;20446;-61
2023/05/08 06:58:30;;;;;;;40.80;26.10;;;;;;;16.83;100.00;101093.69;8325800;28;20040;-61
2023/05/08 07:02:30;;;;;;;37.80;24.10;;;;;;;16.92;100.00;101099.00;8325496;28;20045;-61
2023/05/08 07:06:31;;;;;;;36.67;23.95;;;;;;;16.85;100.00;101097.13;8325070;28;20060;-61
2023/05/08 07:10:32;;;;;;;33.15;22.58;;;;;;;16.89;100.00;101098.47;8328744;28;20040;-61
2023/05/08 07:14:32;;;;;;;33.83;21.98;;;;;;;17.02;100.00;101098.88;8324330;28;20041;-61
2023/05/08 07:18:33;;;;;;;31.67;22.48;;;;;;;17.31;100.00;101105.56;8324721;28;20095;-61
2023/05/08 07:22:33;;;;;;;32.25;22.55;;;;;;;17.62;100.00;101100.31;8324649;28;20120;-61
2023/05/08 07:26:34;;;;;;;32.03;20.05;;;;;;;17.73;100.00;101112.78;8322935;28;20496;-61
2023/05/08 07:30:35;;;;;;;29.10;19.17;;;;;;;18.21;100.00;101110.78;8333594;28;20037;-61
2023/05/08 07:34:35;;;;;;;25.15;18.55;;;;;;;18.58;100.00;101113.81;8336471;28;20033;-61
2023/05/08 07:38:36;;;;;;;23.25;16.65;;;;;;;18.43;100.00;101114.72;8325662;28;20116;-61
2023/05/08 07:42:41;;;;;;;26.10;18.55;;;;;;;18.61;100.00;101116.19;8357221;28;20045;-61
2023/05/08 07:46:42;;;;;;;26.77;18.52;;;;;;;18.50;100.00;101119.31;8356802;28;20039;-61
2023/05/08 07:50:42;;;;;;;27.10;18.80;;;;;;;18.46;100.00;101117.97;8356602;28;20044;-61
2023/05/08 07:54:42;;;;;;;22.92;17.02;;;;;;;18.36;100.00;101120.00;8356392;28;20040;-61
2023/05/08 07:58:44;;;;;;;28.25;19.52;;;;;;;18.27;100.00;101115.56;8356465;28;20469;-61
2023/05/08 08:02:45;;;;;;;27.60;17.90;;;;;;;18.40;100.00;101115.94;8357024;28;20041;-61
2023/05/08 08:06:45;;;;;;;27.95;19.58;;;;;;;18.65;100.00;101120.28;8346334;28;20064;-61
2023/05/08 08:10:46;;;;;;;22.42;16.63;;;;;;;18.99;100.00;101111.69;8354176;28;20095;-61
2023/05/08 08:14:46;;;;;;;19.83;14.30;;;;;;;19.29;100.00;101108.97;8354984;28;20040;-61
2023/05/08 08:18:47;;;;;;;21.42;16.10;;;;;;;19.17;100.00;101107.66;8354862;28;20056;-61
2023/05/08 08:22:47;;;;;;;19.23;14.32;;;;;;;19.77;100.00;101106.84;8346365;28;20139;-61
2023/05/08 08:26:48;;;;;;;23.92;14.88;;;;;;;19.67;100.00;101111.75;8338754;28;20033;-61
2023/05/08 08:30:49;;;;;;;21.30;15.15;;;;;;;19.60;100.00;101110.81;8338933;28;20029;-59
2023/05/08 08:34:50;;;;;;;19.63;14.45;;;;;;;19.44;100.00;101106.28;8338822;28;20033;-59
2023/05/08 08:38:50;;;;;;;21.05;14.60;;;;;;;19.51;100.00;101112.75;8342862;28;20040;-59
2023/05/08 08:42:51;;;;;;;18.80;14.82;;;;;;;19.62;100.00;101108.72;8355590;28;20107;-59
2023/05/08 08:46:52;;;;;;;23.25;14.82;;;;;;;19.58;100.00;101118.34;8353988;28;20090;-59
2023/05/08 08:51:01;;;;;;;22.20;15.05;;;;;;;19.54;100.00;101117.03;8359719;28;20073;-59
2023/05/08 08:55:06;;;;;;;19.42;14.55;;;;;;;19.92;100.00;101116.84;8344357;28;20060;-59
2023/05/08 08:59:08;;;;;;;18.83;14.00;;;;;;;20.26;99.85;101116.34;8343213;28;20220;-59
2023/05/08 09:03:09;;;;;;;17.80;13.38;;;;;;;20.33;98.83;101114.53;8341149;28;20037;-59
2023/05/08 09:07:11;;;;;;;21.10;14.63;;;;;;;20.07;95.66;101108.63;8376546;28;20041;-59
2023/05/08 09:11:11;;;;;;;19.70;14.63;;;;;;;20.41;96.94;101097.97;8359803;28;20123;-59
2023/05/08 09:15:12;;;;;;;18.92;13.77;;;;;;;20.52;93.36;101114.00;8359824;28;20049;-60
2023/05/08 09:19:14;;;;;;;16.42;12.88;;;;;;;20.42;95.12;101121.66;8361454;28;20049;-59
2023/05/08 09:23:23;;;;;;;16.67;13.25;;;;;;;20.69;93.80;101127.34;8327520;28;20102;-59
2023/05/08 09:27:26;;;;;;;15.45;12.95;;;;;;;20.37;93.91;101126.88;8357577;28;20060;-59
2023/05/08 09:31:35;;;;;;;15.45;12.63;;;;;;;20.17;96.37;101126.56;8360054;28;20037;-58
2023/05/08 09:35:36;;;;;;;15.63;12.52;;;;;;;20.38;94.64;101118.44;8360464;28;20033;-58
2023/05/08 09:39:42;;;;;;;16.15;11.85;;;;;;;20.29;95.17;101124.22;8360561;28;20040;-58
2023/05/08 09:43:43;;;;;;;15.32;11.27;;;;;;;20.21;95.44;101116.03;8360550;28;20056;-58
2023/05/08 09:47:47;;;;;;;15.25;11.90;;;;;;;20.16;96.07;101118.53;8360871;28;20067;-57
2023/05/08 09:51:53;;;;;;;13.15;11.38;;;;;;;20.26;95.61;101122.69;8360419;28;20044;-58
2023/05/08 09:55:53;;;;;;;13.35;11.50;;;;;;;20.48;93.69;101119.00;8347431;28;20037;-58
2023/05/08 10:00:05;;;;;;;13.55;11.07;;;;;;;20.56;93.48;101123.56;8343345;28;20047;-59
2023/05/08 10:04:30;;;;;;;13.55;10.43;;;;;;;20.56;92.82;101115.31;8349494;27;20960;-58
2023/05/08 10:08:31;;;;;;;12.45;10.70;;;;;;;20.69;90.86;101112.72;8352583;28;20041;-58
2023/05/08 10:12:32;;;;;;;14.93;10.07;;;;;;;21.63;88.59;101110.66;8352113;28;20487;-58
2023/05/08 10:16:40;;;;;;;11.93;9.20;;;;;;;21.87;84.26;101107.53;8352302;28;20376;-58
2023/05/08 10:20:44;;;;;;;10.82;8.93;;;;;;;21.72;84.89;101106.72;8352495;28;20121;-58
2023/05/08 10:24:48;;;;;;;12.37;9.80;;;;;;;21.32;88.24;101107.41;8352182;28;20041;-58
2023/05/08 10:29:00;;;;;;;12.00;10.25;;;;;;;21.54;85.96;101106.34;8352511;28;20385;-58
2023/05/08 10:33:02;;;;;;;10.93;9.60;;;;;;;20.78;88.90;101108.84;8351542;28;20120;-59
2023/05/08 10:37:03;;;;;;;15.88;10.57;;;;;;;20.59;90.33;101106.69;8352159;28;20045;-58
2023/05/08 10:41:04;;;;;;;12.18;9.68;;;;;;;20.77;90.93;101099.72;8350734;28;20119;-58
2023/05/08 10:45:05;;;;;;;11.73;10.40;;;;;;;20.48;92.33;101096.16;8351507;28;20041;-59
2023/05/08 10:49:27;;;;;;;11.75;10.55;;;;;;;20.52;91.86;101097.50;8350285;28;20071;-59
2023/05/08 10:53:37;;;;;;;16.25;11.27;;;;;;;20.37;93.47;101096.66;8350455;28;20172;-60
2023/05/08 10:57:38;;;;;;;16.63;10.63;;;;;;;20.67;90.46;101092.81;8350809;28;20049;-60
2023/05/08 11:01:38;;;;;;;12.77;9.70;;;;;;;21.18;88.38;101089.91;8351014;28;20045;-59
2023/05/08 11:05:49;;;;;;;15.98;9.32;;;;;;;23.41;78.69;101089.47;8350780;28;20099;-59
2023/05/08 11:09:50;;;;;;;8.48;6.05;;;;;;;23.79;73.69;101079.53;8347749;28;20626;-61
2023/05/08 11:13:54;;;;;;;15.02;9.82;;;;;;;23.88;78.86;101083.78;8322620;28;20034;-61
2023/05/08 11:17:55;;;;;;;11.38;8.18;;;;;;;25.17;73.32;101086.41;8290794;28;20037;-61
2023/05/08 11:22:20;;;;;;;14.00;10.88;;;;;;;23.24;79.07;101090.94;8305520;28;20036;-61
2023/05/08 11:26:36;;;;;;;15.65;12.07;;;;;;;22.17;81.16;101075.94;8325414;28;20045;-61
2023/05/08 11:30:38;;;;;;;14.15;12.68;;;;;;;22.03;83.39;101085.19;8325733;28;20538;-61
2023/05/08 11:39:07;;;;;;;16.65;12.25;;;;;;;22.14;82.33;101070.84;8336995;27;20960;-60
2023/05/08 11:43:23;;;;;;;16.63;12.10;;;;;;;22.08;82.48;101071.66;8317475;28;20049;-61
2023/05/08 11:47:31;;;;;;;12.43;9.50;;;;;;;25.11;73.15;101065.16;8379784;28;20045;-61
2023/05/08 11:51:32;;;;;;;12.52;9.65;;;;;;;25.07;71.58;101059.25;8339969;28;20471;-61
2023/05/08 11:55:32;;;;;;;7.40;6.70;;;;;;;23.17;74.75;101064.16;8313225;28;20483;-61
2023/05/08 11:59:35;;;;;;;8.32;7.10;;;;;;;22.69;77.74;101076.28;8319788;28;20187;-61
2023/05/08 12:03:35;;;;;;;10.73;9.05;;;;;;;22.72;80.05;101069.53;8296932;28;20380;-61
2023/05/08 12:07:45;;;;;;;13.60;8.85;;;;;;;22.28;78.23;101069.91;8293069;28;20033;-61
2023/05/08 12:11:45;;;;;;;11.77;8.88;;;;;;;22.35;78.15;101073.53;8291229;28;20514;-61
2023/05/08 12:15:47;;;;;;;10.52;8.30;;;;;;;22.12;80.17;101061.09;8316600;28;20455;-61
2023/05/08 12:19:52;;;;;;;9.98;7.88;;;;;;;22.43;79.56;101059.59;8341032;28;20077;-61
2023/05/08 12:23:54;;;;;;;9.70;8.70;;;;;;;22.38;78.88;101067.59;8290778;28;20423;-61
2023/05/08 12:27:55;;;;;;;14.93;8.98;;;;;;;22.33;81.98;101055.50;8304519;28;20034;-61
2023/05/08 12:31:56;;;;;;;10.85;7.30;;;;;;;22.17;79.46;101053.91;8310807;28;20390;-61
2023/05/08 12:35:56;;;;;;;7.20;6.20;;;;;;;22.26;77.50;101063.72;8313324;28;21087;-61
2023/05/08 12:39:57;;;;;;;6.88;5.65;;;;;;;22.18;79.71;101058.41;8319606;28;20048;-61
2023/05/08 12:43:57;;;;;;;6.68;4.80;;;;;;;22.28;78.33;101055.25;8312635;28;20046;-61
2023/05/08 12:48:00;;;;;;;4.60;3.20;;;;;;;22.24;76.72;101052.06;8301419;28;20053;-61
2023/05/08 12:52:05;;;;;;;3.20;2.45;;;;;;;22.05;75.10;101049.19;8293187;28;20057;-61
2023/05/08 12:56:06;;;;;;;2.83;2.63;;;;;;;22.10;75.36;101047.53;8286199;28;20042;-59
2023/05/08 13:00:07;;;;;;;3.28;2.50;;;;;;;22.25;76.13;101044.63;8282716;28;20050;-58
2023/05/08 13:04:07;;;;;;;5.28;2.38;;;;;;;22.15;76.00;101039.53;8292704;28;20512;-58
2023/05/08 13:08:09;;;;;;;3.83;3.10;;;;;;;22.09;78.17;101034.81;8298513;28;20046;-58
2023/05/08 13:12:10;;;;;;;6.72;4.45;;;;;;;22.24;80.39;101024.53;8303082;28;20424;-58
2023/05/08 13:16:10;;;;;;;10.15;6.55;;;;;;;22.14;85.12;101026.78;8289442;28;20046;-58
2023/05/08 13:20:11;;;;;;;8.77;7.65;;;;;;;21.83;81.78;101018.09;8323156;28;20039;-58
2023/05/08 13:24:12;;;;;;;8.13;6.80;;;;;;;22.03;80.54;101019.09;8267326;28;20078;-58
2023/05/08 13:28:12;;;;;;;6.90;6.05;;;;;;;21.94;80.33;101014.81;8291459;28;20049;-58
2023/05/08 13:32:13;;;;;;;9.75;8.35;;;;;;;21.80;80.29;101017.69;8292044;28;20088;-58
2023/05/08 13:36:14;;;;;;;9.50;6.38;;;;;;;21.79;81.62;101016.81;8291592;28;20397;-58
2023/05/08 13:40:15;;;;;;;13.68;10.20;;;;;;;22.06;82.66;101024.19;8307165;28;20041;-58
2023/05/08 13:44:15;;;;;;;14.13;12.00;;;;;;;21.87;82.62;101013.06;8288555;28;20044;-58
2023/05/08 13:48:16;;;;;;;15.18;10.35;;;;;;;21.63;82.26;101002.47;8276436;28;20034;-58
2023/05/08 13:52:16;;;;;;;9.10;7.43;;;;;;;21.75;80.23;100996.25;8288848;28;20037;-58
2023/05/08 13:56:17;;;;;;;10.35;9.00;;;;;;;21.71;81.26;101007.84;8290319;28;20038;-58
2023/05/08 14:00:18;;;;;;;13.90;11.60;;;;;;;21.71;80.64;101000.41;8312408;28;20054;-58
2023/05/08 14:04:30;;;;;;;15.23;11.52;;;;;;;21.69;83.30;100998.91;8317327;28;20390;-58
2023/05/08 14:08:30;;;;;;;11.18;9.80;;;;;;;21.78;81.42;100992.25;8303654;28;20129;-58
2023/05/08 14:12:34;;;;;;;12.40;10.18;;;;;;;22.07;83.88;100984.59;8282488;28;20092;-58
2023/05/08 14:16:35;;;;;;;6.85;6.22;;;;;;;22.14;79.33;100988.22;8295191;28;20038;-59
2023/05/08 14:20:35;;;;;;;4.35;3.85;;;;;;;22.03;77.52;100991.56;8315089;28;20030;-58
2023/05/08 14:24:36;;;;;;;9.50;7.00;;;;;;;22.09;79.59;100999.00;8283122;28;20049;-55
2023/05/08 14:28:36;;;;;;;6.43;4.25;;;;;;;21.95;77.68;100999.97;8283585;28;20042;-56
2023/05/08 14:32:37;;;;;;;5.38;4.45;;;;;;;21.77;76.99;101007.91;8281812;28;20536;-56
2023/05/08 14:36:37;;;;;;;5.95;4.22;;;;;;;21.85;77.70;100998.63;8294980;28;20513;-57
2023/05/08 14:40:38;;;;;;;5.28;4.55;;;;;;;21.84;77.76;100996.94;8287514;28;20143;-57
2023/05/08 14:44:38;;;;;;;10.40;5.30;;;;;;;21.77;78.64;101001.56;8312627;28;20389;-58
2023/05/08 14:48:38;;;;;;;8.43;5.53;;;;;;;21.65;77.43;100987.44;8282798;28;20088;-60
2023/05/08 14:52:39;;;;;;;6.30;5.40;;;;;;;21.54;78.72;100999.03;8281376;28;20034;-60
2023/05/08 14:56:39;;;;;;;18.30;8.23;;;;;;;21.51;79.62;100982.91;8281068;28;20065;-61
2023/05/08 15:00:40;;;;;;;10.25;6.38;;;;;;;21.40;79.74;100982.63;8279873;28;20038;-61
2023/05/08 15:04:41;;;;;;;9.20;6.53;;;;;;;21.42;80.20;100991.50;8299057;28;20096;-61
2023/05/08 15:08:41;;;;;;;5.65;5.05;;;;;;;21.41;79.06;100982.41;8297268;28;20172;-61
2023/05/08 15:12:42;;;;;;;25.40;11.18;;;;;;;21.50;80.52;100994.94;8276195;28;20042;-60
2023/05/08 15:16:42;;;;;;;9.25;5.10;;;;;;;21.57;78.19;100995.88;8259817;28;20394;-60
2023/05/08 15:20:42;;;;;;;7.60;5.35;;;;;;;21.38;79.15;100980.06;8258538;28;20053;-60
2023/05/08 15:24:43;;;;;;;5.22;4.78;;;;;;;21.37;79.99;100978.34;8258524;28;20112;-60
2023/05/08 15:28:43;;;;;;;8.93;6.63;;;;;;;21.43;79.64;100979.47;8258669;28;20480;-61
2023/05/08 15:32:44;;;;;;;10.82;6.07;;;;;;;21.52;82.44;100976.34;8258607;28;20476;-60
2023/05/08 15:36:45;;;;;;;7.80;7.00;;;;;;;21.51;82.18;100977.41;8245079;28;20039;-61
2023/05/08 15:40:45;;;;;;;6.97;6.03;;;;;;;21.52;77.73;100970.84;8253795;28;20112;-61
2023/05/08 15:44:46;;;;;;;6.35;5.75;;;;;;;21.53;77.27;100971.69;8256977;28;20054;-60
2023/05/08 15:48:46;;;;;;;6.75;5.78;;;;;;;21.54;77.68;100968.75;8252577;28;20247;-61
2023/05/08 15:52:46;;;;;;;7.47;5.95;;;;;;;21.58;77.58;100975.53;8257192;28;20046;-61
2023/05/08 15:56:47;;;;;;;10.55;7.10;;;;;;;21.60;77.40;100970.69;8245930;28;20042;-61
2023/05/08 16:00:48;;;;;;;10.73;7.17;;;;;;;21.71;79.48;100981.13;8254963;28;20046;-60
2023/05/08 16:04:48;;;;;;;11.50;9.23;;;;;;;21.77;78.36;100980.38;8256550;28;20289;-61
2023/05/08 16:08:50;;;;;;;10.25;7.90;;;;;;;21.82;76.98;100980.63;8257710;28;20042;-60
2023/05/08 16:12:50;;;;;;;10.45;9.38;;;;;;;21.86;77.89;100973.66;8255100;28;20490;-61
2023/05/08 16:16:51;;;;;;;14.05;9.52;;;;;;;21.82;79.45;100971.50;8257855;28;20046;-61
2023/05/08 16:20:51;;;;;;;14.65;8.93;;;;;;;21.92;78.62;100961.81;8236420;28;20118;-61
2023/05/08 16:24:52;;;;;;;10.70;9.13;;;;;;;21.90;79.14;100950.19;8253595;28;20042;-61
2023/05/08 16:28:53;;;;;;;10.48;8.73;;;;;;;21.80;77.92;100957.09;8244832;28;20293;-60
2023/05/08 16:32:54;;;;;;;12.32;9.00;;;;;;;21.85;77.91;100947.19;8255016;28;20046;-60
2023/05/08 16:36:54;;;;;;;17.10;9.55;;;;;;;21.98;78.50;100944.50;8250943;28;20519;-61
2023/05/08 16:41:03;;;;;;;8.88;6.78;;;;;;;21.99;78.91;100945.34;8263222;28;20400;-55
2023/05/08 16:45:04;;;;;;;13.40;9.73;;;;;;;21.80;79.56;100946.94;8275849;28;20492;-58
2023/05/08 16:49:05;;;;;;;14.38;9.38;;;;;;;21.73;79.57;100940.50;8245026;28;20049;-59
2023/05/08 16:53:05;;;;;;;9.75;8.60;;;;;;;21.70;80.77;100945.56;8240369;28;20457;-59
2023/05/08 16:57:06;;;;;;;12.23;9.88;;;;;;;21.64;81.23;100952.72;8254795;28;20302;-59
2023/05/08 17:01:06;;;;;;;12.15;9.45;;;;;;;21.57;82.58;100940.81;8280687;28;20096;-59
2023/05/08 17:05:07;;;;;;;13.20;9.30;;;;;;;21.45;81.53;100938.81;8253570;28;20472;-59
2023/05/08 17:09:08;;;;;;;11.75;10.52;;;;;;;21.40;83.78;100939.41;8250858;28;20042;-59
2023/05/08 17:13:08;;;;;;;11.98;10.25;;;;;;;21.35;83.42;100948.28;8254378;28;20049;-59
2023/05/08 17:17:08;;;;;;;13.30;10.27;;;;;;;21.36;82.94;100949.13;8255246;28;20097;-59
2023/05/08 17:21:09;;;;;;;13.35;10.27;;;;;;;21.21;81.01;100940.13;8254641;28;20129;-59
2023/05/08 17:25:10;;;;;;;13.88;11.20;;;;;;;21.13;82.65;100938.38;8248330;28;20556;-59
2023/05/08 17:29:10;;;;;;;14.63;11.93;;;;;;;21.12;83.11;100930.31;8237679;28;20035;-59
2023/05/08 17:33:10;;;;;;;13.93;11.05;;;;;;;21.06;82.89;100936.59;8253824;28;20078;-59
2023/05/08 17:37:11;;;;;;;14.40;10.67;;;;;;;20.97;82.32;100943.28;8253445;28;20042;-59
2023/05/08 17:41:12;;;;;;;15.85;11.60;;;;;;;20.87;83.85;100943.59;8252580;28;20289;-59
2023/05/08 17:45:12;;;;;;;13.35;11.88;;;;;;;20.82;85.68;100950.72;8253716;28;20054;-59
2023/05/08 17:49:13;;;;;;;17.60;11.45;;;;;;;20.75;85.42;100958.91;8254445;28;20330;-59
2023/05/08 17:53:13;;;;;;;16.52;11.57;;;;;;;20.68;86.85;100949.72;8253493;28;20041;-59
2023/05/08 17:57:14;;;;;;;16.73;11.95;;;;;;;20.66;86.98;100950.97;8253796;28;20097;-59
2023/05/08 18:01:14;;;;;;;18.90;12.73;;;;;;;20.56;88.77;100939.47;8253578;28;20038;-59
2023/05/08 18:05:15;;;;;;;17.30;13.85;;;;;;;20.51;89.31;100934.56;8253242;28;20575;-59
2023/05/08 18:09:15;;;;;;;14.43;12.73;;;;;;;20.37;91.05;100934.59;8253644;28;20096;-59
2023/05/08 18:13:16;;;;;;;13.82;10.27;;;;;;;20.24;92.13;100939.91;8247391;28;20038;-59
2023/05/08 18:17:20;;;;;;;14.60;10.57;;;;;;;20.20;92.67;100935.84;8252886;28;20046;-59
2023/05/08 18:21:20;;;;;;;12.37;11.07;;;;;;;20.12;93.29;100941.41;8249237;28;20053;-60
2023/05/08 18:25:21;;;;;;;12.45;11.13;;;;;;;20.02;94.58;100943.63;8255664;28;20335;-60
2023/05/08 18:29:21;;;;;;;16.05;11.10;;;;;;;19.86;94.22;100933.72;8263459;28;20269;-59
2023/05/08 18:33:22;;;;;;;13.98;10.75;;;;;;;19.91;93.90;100935.88;8267689;28;20033;-59
2023/05/08 18:37:22;;;;;;;14.95;11.63;;;;;;;19.77;95.33;100933.97;8256393;28;20382;-59
2023/05/08 18:41:23;;;;;;;17.38;12.88;;;;;;;19.66;97.07;100934.44;8267530;28;20034;-59